Time;durP1;ratioP1;P1;durP2;ratioP2;P2;SDS_P1;SDS_P2;PMS_P1;PMS_P2;Temp;Humidity;BMP_temperature;BMP_pressure;BME280_temperature;BME280_humidity;BME280_pressure;Samples;Min_cycle;Max_cycle;Signal;HPM_P1;HPM_P2
2022/05/17 00:00:31;;;;;;;6.80;3.10;;;14.00;38.20;;;;;;4918716;29;20283;-68
2022/05/17 00:02:57;;;;;;;5.77;3.47;;;13.90;38.30;;;;;;4918259;29;20187;-68
2022/05/17 00:05:23;;;;;;;3.47;2.90;;;13.90;38.30;;;;;;4917971;29;20665;-68
2022/05/17 00:07:48;;;;;;;3.93;3.33;;;13.80;38.80;;;;;;4917742;29;20507;-68
2022/05/17 00:10:14;;;;;;;7.20;2.90;;;13.80;38.80;;;;;;4918238;29;20285;-69
2022/05/17 00:12:39;;;;;;;4.67;3.40;;;13.80;38.70;;;;;;4917957;29;20183;-69
2022/05/17 00:15:06;;;;;;;5.23;3.37;;;13.70;38.60;;;;;;4918621;29;20706;-68
2022/05/17 00:17:32;;;;;;;4.10;3.20;;;13.70;39.50;;;;;;4917980;29;20259;-69
2022/05/17 00:19:58;;;;;;;2.93;2.57;;;13.60;39.40;;;;;;4918072;29;20506;-70
2022/05/17 00:22:24;;;;;;;9.77;3.00;;;13.60;39.40;;;;;;4921301;29;20451;-69
2022/05/17 00:24:50;;;;;;;3.10;2.30;;;13.60;39.00;;;;;;4928323;29;20460;-69
2022/05/17 00:27:15;;;;;;;3.43;3.13;;;13.60;39.40;;;;;;4919759;29;20474;-69
2022/05/17 00:29:41;;;;;;;5.43;3.10;;;13.60;39.40;;;;;;4919036;29;20184;-69
2022/05/17 00:32:07;;;;;;;5.20;3.20;;;13.50;39.30;;;;;;4917163;29;20342;-69
2022/05/17 00:34:32;;;;;;;2.50;2.30;;;13.60;39.40;;;;;;4919187;29;20176;-70
2022/05/17 00:36:58;;;;;;;8.93;3.10;;;13.50;39.30;;;;;;4918989;29;20236;-70
2022/05/17 00:39:24;;;;;;;11.90;4.97;;;13.50;39.30;;;;;;4918450;29;20186;-70
2022/05/17 00:41:49;;;;;;;6.00;3.67;;;13.40;39.50;;;;;;4919292;29;20203;-69
2022/05/17 00:47:06;;;;;;;8.73;3.00;;;13.40;39.80;;;;;;4918050;29;20182;-70
2022/05/17 00:49:50;;;;;;;6.30;2.63;;;13.40;39.60;;;;;;4917691;29;20412;-70
2022/05/17 00:52:28;;;;;;;2.57;2.23;;;13.40;39.70;;;;;;4917811;29;20414;-73
2022/05/17 00:54:58;;;;;;;3.70;2.70;;;13.30;40.00;;;;;;4900870;29;20920;-70
2022/05/17 00:57:30;;;;;;;2.67;2.43;;;13.30;40.00;;;;;;4917363;29;20831;-69
2022/05/17 00:59:59;;;;;;;3.80;2.70;;;13.30;40.30;;;;;;4916312;29;21028;-70
2022/05/17 01:02:27;;;;;;;4.87;3.33;;;13.20;40.60;;;;;;4916970;29;20408;-70
2022/05/17 01:04:53;;;;;;;5.57;3.73;;;13.20;40.70;;;;;;4917118;29;20553;-70
2022/05/17 01:07:22;;;;;;;5.40;2.87;;;13.10;41.00;;;;;;4916658;29;20847;-69
2022/05/17 01:09:48;;;;;;;3.50;2.60;;;13.10;41.20;;;;;;4917089;29;20479;-70
2022/05/17 01:12:13;;;;;;;4.43;3.17;;;13.10;41.20;;;;;;4916754;29;20490;-70
2022/05/17 01:14:58;;;;;;;3.20;2.90;;;13.10;40.90;;;;;;4916953;29;20181;-69
2022/05/17 01:17:25;;;;;;;3.13;2.83;;;13.20;40.90;;;;;;4916431;29;20178;-69
2022/05/17 01:19:52;;;;;;;3.87;2.73;;;13.10;41.00;;;;;;4916625;29;20414;-69
2022/05/17 01:22:17;;;;;;;8.13;3.80;;;13.00;41.10;;;;;;4917227;29;20416;-71
2022/05/17 01:24:43;;;;;;;4.00;2.73;;;13.00;41.50;;;;;;4917195;29;20474;-72
2022/05/17 01:27:29;;;;;;;6.30;2.70;;;13.00;42.70;;;;;;4916653;29;20637;-72
2022/05/17 01:29:55;;;;;;;7.80;3.57;;;12.90;42.60;;;;;;4916441;29;20427;-72
2022/05/17 01:32:21;;;;;;;3.70;2.60;;;12.90;42.30;;;;;;4917849;29;20672;-71
2022/05/17 01:34:47;;;;;;;4.07;2.97;;;12.90;42.50;;;;;;4916825;29;20579;-71
2022/05/17 01:37:14;;;;;;;4.30;3.50;;;13.00;42.50;;;;;;4916623;29;20415;-72
2022/05/17 01:39:40;;;;;;;3.40;2.43;;;13.00;42.20;;;;;;4916725;29;20266;-72
2022/05/17 01:42:06;;;;;;;3.60;2.67;;;13.00;42.00;;;;;;4916575;29;20502;-72
2022/05/17 01:44:32;;;;;;;3.63;2.40;;;13.00;41.90;;;;;;4916780;29;20207;-72
2022/05/17 01:46:58;;;;;;;5.77;2.77;;;13.00;42.00;;;;;;4915638;29;20454;-71
2022/05/17 01:49:24;;;;;;;4.23;3.53;;;13.00;41.90;;;;;;4916432;29;20179;-72
2022/05/17 01:51:49;;;;;;;4.47;3.43;;;13.00;41.80;;;;;;4899881;29;20257;-72
2022/05/17 01:54:15;;;;;;;3.80;3.10;;;13.10;41.60;;;;;;4899952;29;20272;-71
2022/05/17 01:56:40;;;;;;;2.57;2.13;;;13.00;41.60;;;;;;4917293;29;20182;-72
2022/05/17 01:59:06;;;;;;;7.60;3.53;;;13.10;41.30;;;;;;4916353;29;20175;-71
2022/05/17 02:01:32;;;;;;;6.00;3.80;;;13.00;41.60;;;;;;4915249;29;20234;-71
2022/05/17 02:03:57;;;;;;;5.13;4.60;;;13.00;40.80;;;;;;4916222;29;20231;-71
2022/05/17 02:06:23;;;;;;;4.13;3.13;;;13.00;41.10;;;;;;4916594;29;20210;-71
2022/05/17 02:08:49;;;;;;;3.70;3.17;;;12.90;41.50;;;;;;4916872;29;20172;-71
2022/05/17 02:11:15;;;;;;;3.23;2.93;;;12.90;42.70;;;;;;4916578;29;20191;-71
2022/05/17 02:13:41;;;;;;;4.63;3.17;;;12.90;42.00;;;;;;4916437;29;20501;-72
2022/05/17 02:16:09;;;;;;;9.10;3.27;;;12.80;42.00;;;;;;4915370;29;20427;-72
2022/05/17 02:18:35;;;;;;;2.80;2.20;;;12.70;42.50;;;;;;4899226;29;20441;-72
2022/05/17 02:21:01;;;;;;;5.23;2.97;;;12.70;43.70;;;;;;4916278;29;20501;-72
2022/05/17 02:23:27;;;;;;;4.70;2.80;;;12.80;43.60;;;;;;4899148;29;20521;-72
2022/05/17 02:25:53;;;;;;;8.10;2.70;;;12.80;42.60;;;;;;4916722;29;20461;-72
2022/05/17 02:28:19;;;;;;;5.80;2.70;;;12.80;42.50;;;;;;4916842;29;20478;-72
2022/05/17 02:30:45;;;;;;;5.93;2.67;;;12.70;42.70;;;;;;4916503;29;20443;-72
2022/05/17 02:33:12;;;;;;;4.13;3.20;;;12.60;43.40;;;;;;4915938;29;20261;-71
2022/05/17 02:35:38;;;;;;;3.43;2.73;;;12.50;43.50;;;;;;4916007;29;20427;-71
2022/05/17 02:38:05;;;;;;;4.73;3.77;;;12.50;43.50;;;;;;4898905;29;20426;-71
2022/05/17 02:40:30;;;;;;;5.00;3.37;;;12.40;43.60;;;;;;4916154;29;20450;-71
2022/05/17 02:42:56;;;;;;;3.70;2.67;;;12.40;43.80;;;;;;4916395;29;20943;-71
2022/05/17 02:45:22;;;;;;;3.63;2.90;;;12.50;44.70;;;;;;4916274;29;20697;-72
2022/05/17 02:47:47;;;;;;;5.63;2.73;;;12.50;43.80;;;;;;4915804;29;20585;-71
2022/05/17 02:50:13;;;;;;;6.70;3.10;;;12.50;43.90;;;;;;4917640;29;20210;-72
2022/05/17 02:52:39;;;;;;;3.70;2.67;;;12.30;44.60;;;;;;4902950;29;20179;-71
2022/05/17 02:55:06;;;;;;;6.87;3.17;;;12.30;44.70;;;;;;4920451;29;20274;-72
2022/05/17 02:57:32;;;;;;;5.87;2.70;;;12.30;44.80;;;;;;4920102;29;20926;-72
2022/05/17 02:59:58;;;;;;;4.00;3.07;;;12.20;45.00;;;;;;4919211;29;20872;-72
2022/05/17 03:02:24;;;;;;;6.00;3.10;;;12.30;45.70;;;;;;4920068;29;20462;-72
2022/05/17 03:04:49;;;;;;;5.60;3.57;;;12.30;45.00;;;;;;4919657;29;20559;-72
2022/05/17 03:07:15;;;;;;;3.83;2.83;;;12.30;44.70;;;;;;4919599;29;20559;-72
2022/05/17 03:09:40;;;;;;;3.13;2.83;;;12.40;43.80;;;;;;4903055;29;20185;-72
2022/05/17 03:12:06;;;;;;;4.97;3.27;;;12.50;44.00;;;;;;4920025;29;20178;-72
2022/05/17 03:14:32;;;;;;;5.57;3.30;;;12.50;43.50;;;;;;4919727;29;20273;-71
2022/05/17 03:16:57;;;;;;;4.37;3.13;;;12.50;43.50;;;;;;4919539;29;20446;-72
2022/05/17 03:19:23;;;;;;;9.10;3.80;;;12.50;43.60;;;;;;4917991;29;20189;-72
2022/05/17 03:21:49;;;;;;;3.57;3.00;;;12.50;43.30;;;;;;4918994;29;20321;-72
2022/05/17 03:24:15;;;;;;;4.90;3.40;;;12.60;43.60;;;;;;4918914;29;20185;-72
2022/05/17 03:26:41;;;;;;;3.50;2.70;;;12.50;43.60;;;;;;4918839;29;20210;-72
2022/05/17 03:29:07;;;;;;;4.07;2.90;;;12.50;43.50;;;;;;4901860;29;20435;-73
2022/05/17 03:31:34;;;;;;;8.80;3.67;;;12.50;43.40;;;;;;4919899;29;20267;-74
2022/05/17 03:33:59;;;;;;;2.70;2.43;;;12.60;43.70;;;;;;4919257;29;20412;-73
2022/05/17 03:36:25;;;;;;;4.60;2.77;;;12.60;42.80;;;;;;4919451;29;20431;-73
2022/05/17 03:38:50;;;;;;;3.90;2.63;;;12.50;43.80;;;;;;4919300;29;20195;-73
2022/05/17 03:41:16;;;;;;;3.30;2.83;;;12.50;43.50;;;;;;4918730;29;20626;-73
2022/05/17 03:43:42;;;;;;;8.93;3.40;;;12.50;43.50;;;;;;4919537;29;20708;-73
2022/05/17 03:46:08;;;;;;;5.03;3.70;;;12.40;43.40;;;;;;4918775;29;20681;-72
2022/05/17 03:48:35;;;;;;;6.50;3.60;;;12.50;43.50;;;;;;4918875;29;20179;-73
2022/05/17 03:51:00;;;;;;;5.30;3.43;;;12.50;43.50;;;;;;4901434;29;20450;-73
2022/05/17 03:53:26;;;;;;;4.33;2.87;;;12.50;43.50;;;;;;4901435;29;20416;-72
2022/05/17 03:55:51;;;;;;;5.77;3.23;;;12.50;43.60;;;;;;4918316;29;20191;-73
2022/05/17 03:58:17;;;;;;;3.90;3.00;;;12.50;43.50;;;;;;4901232;29;20299;-73
2022/05/17 04:00:43;;;;;;;3.80;3.33;;;12.50;43.50;;;;;;4917464;29;20204;-72
2022/05/17 04:03:09;;;;;;;4.83;2.83;;;12.60;43.00;;;;;;4918139;29;20447;-72
2022/05/17 04:05:35;;;;;;;4.47;3.50;;;12.60;42.90;;;;;;4918222;29;20210;-73
2022/05/17 04:08:00;;;;;;;4.93;3.60;;;12.60;42.90;;;;;;4901126;29;20510;-72
2022/05/17 04:10:26;;;;;;;4.23;2.70;;;12.70;42.30;;;;;;4918153;29;20613;-72
2022/05/17 04:12:51;;;;;;;8.83;3.20;;;12.60;42.50;;;;;;4918370;29;20187;-72
2022/05/17 04:15:21;;;;;;;4.20;2.83;;;12.60;43.40;;;;;;4918795;29;20572;-72
2022/05/17 04:17:47;;;;;;;3.20;2.53;;;12.60;43.60;;;;;;4918555;29;20180;-72
2022/05/17 04:20:15;;;;;;;4.60;3.90;;;12.70;43.50;;;;;;4918167;29;20447;-72
2022/05/17 04:22:49;;;;;;;5.43;3.13;;;12.70;43.10;;;;;;4918033;29;20524;-73
2022/05/17 04:25:20;;;;;;;3.03;2.60;;;12.70;43.10;;;;;;4917968;29;20590;-72
2022/05/17 04:27:46;;;;;;;3.70;2.80;;;12.70;43.00;;;;;;4918326;29;20426;-73
2022/05/17 04:30:12;;;;;;;6.63;2.67;;;12.80;42.80;;;;;;4918977;29;20440;-72
2022/05/17 04:32:38;;;;;;;6.17;3.20;;;12.80;42.90;;;;;;4918996;29;20470;-73
2022/05/17 04:35:05;;;;;;;5.80;2.90;;;12.90;42.30;;;;;;4918395;29;20482;-73
2022/05/17 04:37:31;;;;;;;3.33;3.03;;;13.00;41.20;;;;;;4917696;29;20206;-72
2022/05/17 04:39:56;;;;;;;6.50;3.63;;;13.10;41.20;;;;;;4917542;29;20454;-73
2022/05/17 04:42:22;;;;;;;4.83;2.80;;;13.20;40.80;;;;;;4917860;29;20195;-73
2022/05/17 04:44:47;;;;;;;5.50;2.53;;;13.20;40.60;;;;;;4921972;29;20265;-72
2022/05/17 04:47:13;;;;;;;3.43;2.27;;;13.10;40.70;;;;;;4926773;29;20207;-72
2022/05/17 04:49:39;;;;;;;3.50;3.07;;;12.90;42.80;;;;;;4928945;29;20202;-72
2022/05/17 04:52:06;;;;;;;4.97;2.70;;;13.00;41.90;;;;;;4926919;29;20183;-71
2022/05/17 04:54:31;;;;;;;3.70;3.03;;;13.20;40.50;;;;;;4910125;29;20183;-72
2022/05/17 04:56:57;;;;;;;5.20;3.23;;;13.40;40.30;;;;;;4926753;29;20849;-73
2022/05/17 04:59:23;;;;;;;4.90;3.03;;;13.50;40.00;;;;;;4926377;29;20183;-72
2022/05/17 05:01:48;;;;;;;6.50;3.40;;;13.70;39.50;;;;;;4926722;29;20214;-73
2022/05/17 05:04:14;;;;;;;11.17;4.00;;;14.20;40.00;;;;;;4926202;29;20430;-72
2022/05/17 05:06:40;;;;;;;4.83;3.43;;;15.10;38.10;;;;;;4922274;29;20341;-72
2022/05/17 05:09:07;;;;;;;6.60;4.67;;;16.10;34.00;;;;;;4917884;29;20293;-72
2022/05/17 05:11:34;;;;;;;3.83;3.43;;;17.10;28.80;;;;;;4918403;29;20648;-72
2022/05/17 05:13:59;;;;;;;11.23;6.93;;;18.10;28.10;;;;;;4916774;29;21008;-72
2022/05/17 05:16:25;;;;;;;7.63;7.13;;;19.20;24.70;;;;;;4917285;29;20423;-72
2022/05/17 05:18:51;;;;;;;9.27;8.63;;;20.20;23.50;;;;;;4916758;29;20187;-72
2022/05/17 05:21:17;;;;;;;10.47;9.87;;;21.10;20.60;;;;;;4965873;23;20701;-67
2022/05/17 05:23:44;;;;;;;11.20;10.70;;;21.90;18.70;;;;;;4973769;28;20468;-72
2022/05/17 05:26:11;;;;;;;11.60;11.00;;;22.60;18.30;;;;;;4973945;28;20726;-71
2022/05/17 05:28:37;;;;;;;13.17;12.37;;;23.50;18.10;;;;;;4973377;28;20424;-72
2022/05/17 05:31:03;;;;;;;13.93;13.33;;;24.40;16.00;;;;;;4974577;28;20433;-71
2022/05/17 05:33:31;;;;;;;13.80;13.20;;;25.20;13.30;;;;;;4973817;28;20495;-70
2022/05/17 05:35:57;;;;;;;13.27;12.67;;;26.00;12.70;;;;;;4973563;28;20515;-70
2022/05/17 05:38:22;;;;;;;14.37;13.63;;;26.90;12.00;;;;;;4973219;28;20500;-70
2022/05/17 05:40:48;;;;;;;15.30;14.60;;;27.70;9.50;;;;;;4973379;28;20487;-70
2022/05/17 05:43:13;;;;;;;15.53;14.50;;;28.30;8.20;;;;;;4973576;28;20188;-70
2022/05/17 05:45:39;;;;;;;14.77;14.13;;;28.90;8.40;;;;;;4973559;28;20289;-70
2022/05/17 05:48:05;;;;;;;15.53;14.60;;;29.40;6.30;;;;;;4962933;28;20177;-70
2022/05/17 05:50:31;;;;;;;16.33;15.53;;;29.90;6.90;;;;;;4973295;28;20814;-70
2022/05/17 05:53:05;;;;;;;15.03;14.33;;;30.40;6.40;;;;;;4973310;28;20445;-70
2022/05/17 05:55:31;;;;;;;15.57;14.63;;;30.90;31.70;;;;;;4973380;28;20267;-70
2022/05/17 05:57:58;;;;;;;14.40;13.80;;;31.10;29.90;;;;;;4961175;28;20444;-70
2022/05/17 06:00:23;;;;;;;16.30;15.40;;;31.30;30.70;;;;;;4953834;29;20452;-70
2022/05/17 06:02:49;;;;;;;15.07;14.27;;;31.40;30.90;;;;;;4953823;29;20422;-70
2022/05/17 06:05:15;;;;;;;14.90;14.20;;;31.40;32.60;;;;;;4953922;29;20638;-70
2022/05/17 06:07:41;;;;;;;15.20;14.50;;;31.40;33.10;;;;;;4962855;28;20180;-70
2022/05/17 06:10:08;;;;;;;14.90;14.30;;;31.90;34.60;;;;;;4973408;28;20774;-70
2022/05/17 06:12:33;;;;;;;15.47;14.60;;;32.30;3.60;;;;;;4972665;28;20189;-70
2022/05/17 06:14:59;;;;;;;16.17;14.97;;;32.60;2.20;;;;;;4973415;28;20424;-70
2022/05/17 06:17:27;;;;;;;14.40;13.80;;;32.70;1.60;;;;;;4966326;28;20647;-70
2022/05/17 06:19:54;;;;;;;14.00;13.50;;;32.70;1.80;;;;;;4953852;29;20174;-70
2022/05/17 06:22:20;;;;;;;13.30;12.80;;;32.50;1.00;;;;;;4953864;29;20468;-70
2022/05/17 06:24:45;;;;;;;13.90;13.40;;;31.90;2.30;;;;;;4956606;28;20781;-69
2022/05/17 06:27:11;;;;;;;15.00;14.40;;;31.70;2.30;;;;;;4962193;28;20184;-69
2022/05/17 06:29:36;;;;;;;14.67;14.00;;;31.30;2.40;;;;;;4976932;28;20177;-70
2022/05/17 06:32:02;;;;;;;14.30;13.70;;;30.80;3.10;;;;;;4976934;28;20721;-70
2022/05/17 06:34:28;;;;;;;15.70;14.87;;;30.60;3.10;;;;;;4976978;28;20647;-71
2022/05/17 06:36:53;;;;;;;14.80;14.13;;;29.70;26.10;;;;;;4975441;28;20565;-69
2022/05/17 06:39:19;;;;;;;14.80;14.20;;;29.80;26.40;;;;;;4966998;28;20213;-69
2022/05/17 06:41:44;;;;;;;13.50;12.90;;;29.60;28.40;;;;;;4977725;28;20224;-69
2022/05/17 06:44:10;;;;;;;14.40;13.50;;;28.70;5.30;;;;;;4962493;28;20735;-67
2022/05/17 06:46:36;;;;;;;14.33;13.53;;;28.20;6.00;;;;;;4969061;28;20220;-68
2022/05/17 06:49:01;;;;;;;15.37;14.00;;;28.30;5.90;;;;;;4962014;28;20433;-71
2022/05/17 06:51:27;;;;;;;13.77;13.07;;;28.60;6.10;;;;;;4957491;29;20205;-70
2022/05/17 06:53:53;;;;;;;13.20;12.60;;;29.00;5.20;;;;;;4963561;28;20187;-69
2022/05/17 06:56:18;;;;;;;14.07;13.47;;;28.00;5.60;;;;;;4962339;28;20674;-69
2022/05/17 06:58:44;;;;;;;14.47;13.70;;;27.70;7.20;;;;;;4957766;28;20190;-69
2022/05/17 07:01:09;;;;;;;12.83;12.13;;;28.10;5.80;;;;;;4976252;28;20283;-68
2022/05/17 07:03:35;;;;;;;12.93;12.20;;;28.40;6.40;;;;;;4976526;28;20298;-69
2022/05/17 07:06:01;;;;;;;14.00;13.30;;;28.90;5.50;;;;;;4976326;28;20674;-69
2022/05/17 07:08:26;;;;;;;15.10;14.10;;;29.40;5.50;;;;;;4975878;28;20235;-68
2022/05/17 07:13:36;;;;;;;13.93;13.23;;;29.70;4.70;;;;;;4964014;28;20546;-69
2022/05/17 07:16:02;;;;;;;14.47;13.50;;;30.60;4.00;;;;;;4976195;28;20413;-69
2022/05/17 07:18:29;;;;;;;14.70;13.73;;;30.80;3.00;;;;;;4973185;28;20212;-69
2022/05/17 07:20:55;;;;;;;15.57;14.57;;;30.20;3.60;;;;;;4975256;28;20220;-69
2022/05/17 07:23:24;;;;;;;16.00;15.00;;;30.80;2.90;;;;;;4958690;28;20460;-69
2022/05/17 07:25:50;;;;;;;15.10;14.20;;;30.80;3.60;;;;;;4975955;28;20468;-69
2022/05/17 07:28:18;;;;;;;15.73;14.73;;;30.70;2.70;;;;;;4950591;29;20953;-69
2022/05/17 07:30:44;;;;;;;15.87;14.87;;;31.10;2.80;;;;;;4956737;29;20533;-69
2022/05/17 07:33:10;;;;;;;16.60;15.20;;;31.40;2.30;;;;;;4956663;29;20420;-69
2022/05/17 07:35:36;;;;;;;16.10;14.80;;;31.30;2.90;;;;;;4955825;28;20421;-69
2022/05/17 07:38:03;;;;;;;13.80;13.10;;;31.70;2.50;;;;;;4938768;29;20525;-69
2022/05/17 07:40:30;;;;;;;14.57;13.80;;;32.30;1.80;;;;;;4956324;29;20214;-69
2022/05/17 07:42:55;;;;;;;15.50;14.60;;;32.50;1.80;;;;;;4956410;29;20617;-69
2022/05/17 07:45:21;;;;;;;14.27;13.57;;;27.40;4.30;;;;;;4957594;29;20603;-69
2022/05/17 07:47:46;;;;;;;14.70;14.10;;;26.50;8.80;;;;;;4956136;29;20592;-69
2022/05/17 07:50:12;;;;;;;14.60;13.90;;;27.00;7.90;;;;;;4956134;29;20517;-69
2022/05/17 07:52:38;;;;;;;15.43;14.73;;;28.10;7.20;;;;;;4956194;29;20265;-69
2022/05/17 07:55:04;;;;;;;14.83;14.00;;;29.20;5.20;;;;;;4956109;29;20514;-69
2022/05/17 07:57:30;;;;;;;15.70;14.80;;;29.50;5.00;;;;;;4956218;29;20186;-69
2022/05/17 07:59:56;;;;;;;14.90;14.00;;;28.90;5.00;;;;;;4956206;29;20488;-69
2022/05/17 08:02:22;;;;;;;14.87;13.87;;;28.70;5.30;;;;;;4955983;29;20247;-69
2022/05/17 08:04:48;;;;;;;14.67;13.50;;;24.70;10.80;;;;;;4955786;29;20189;-69
2022/05/17 08:07:13;;;;;;;14.07;13.40;;;26.10;11.00;;;;;;4956441;29;20468;-69
2022/05/17 08:09:39;;;;;;;15.30;14.60;;;27.40;8.70;;;;;;4955851;29;20772;-69
2022/05/17 08:12:07;;;;;;;16.23;14.50;;;28.40;6.70;;;;;;4955668;29;20201;-69
2022/05/17 08:14:38;;;;;;;13.87;13.27;;;28.90;6.10;;;;;;4938422;29;20312;-69
2022/05/17 08:17:04;;;;;;;15.70;14.57;;;29.40;5.40;;;;;;4938355;29;20445;-69
2022/05/17 08:19:30;;;;;;;13.43;12.83;;;29.50;5.40;;;;;;4955410;29;20421;-69
2022/05/17 08:21:55;;;;;;;14.07;13.30;;;29.90;5.20;;;;;;4956240;29;20873;-69
2022/05/17 08:24:22;;;;;;;14.87;14.17;;;30.30;4.50;;;;;;4955679;29;20257;-68
2022/05/17 08:29:31;;;;;;;13.80;12.93;;;27.40;7.80;;;;;;4955382;29;20852;-69
2022/05/17 08:34:41;;;;;;;14.37;13.37;;;25.10;11.00;;;;;;4955751;29;20330;-69
2022/05/17 08:37:06;;;;;;;14.57;13.80;;;25.80;10.80;;;;;;4955286;29;20433;-69
2022/05/17 08:39:32;;;;;;;13.77;13.00;;;25.70;10.70;;;;;;4955281;29;20178;-69
2022/05/17 08:42:24;;;;;;;13.50;13.00;;;25.70;10.50;;;;;;4955364;29;20190;-69
2022/05/17 08:44:56;;;;;;;14.40;13.60;;;26.40;9.40;;;;;;4955880;29;20519;-70
2022/05/17 08:47:42;;;;;;;14.23;13.63;;;26.80;8.90;;;;;;4954832;28;20410;-71
2022/05/17 08:50:19;;;;;;;14.60;13.90;;;27.10;8.20;;;;;;4955566;29;20410;-72
2022/05/17 08:52:44;;;;;;;15.27;14.47;;;26.70;7.20;;;;;;4954980;29;20421;-71
2022/05/17 08:55:20;;;;;;;14.90;14.20;;;26.90;7.30;;;;;;4955249;29;20753;-71
2022/05/17 08:57:56;;;;;;;14.87;13.63;;;27.10;7.40;;;;;;4955000;29;20174;-70
2022/05/17 09:00:26;;;;;;;15.13;14.50;;;27.10;7.80;;;;;;4955134;29;20429;-70
2022/05/17 09:02:59;;;;;;;15.63;14.93;;;27.30;7.60;;;;;;4954786;29;20418;-70
2022/05/17 09:05:40;;;;;;;14.17;13.43;;;27.40;7.20;;;;;;4954828;29;20485;-70
2022/05/17 09:08:11;;;;;;;15.67;14.87;;;27.50;6.60;;;;;;4944346;28;20479;-70
2022/05/17 09:10:41;;;;;;;14.27;13.57;;;27.10;7.30;;;;;;4970627;28;20447;-70
2022/05/17 09:13:16;;;;;;;14.87;14.10;;;27.00;7.40;;;;;;4970003;28;20432;-71
2022/05/17 09:15:43;;;;;;;14.40;13.60;;;27.10;7.40;;;;;;4970493;28;20894;-71
2022/05/17 09:18:13;;;;;;;13.93;13.33;;;24.40;8.50;;;;;;4969917;28;20516;-70
2022/05/17 09:20:39;;;;;;;13.57;12.97;;;23.80;11.10;;;;;;4968704;28;21021;-71
2022/05/17 09:23:06;;;;;;;13.70;13.10;;;24.50;10.70;;;;;;4969337;28;20425;-70
2022/05/17 09:25:58;;;;;;;13.77;13.17;;;25.20;9.20;;;;;;4970217;28;20464;-70
2022/05/17 09:28:49;;;;;;;13.90;13.30;;;25.70;8.40;;;;;;4968897;28;20428;-70
2022/05/17 09:31:29;;;;;;;14.47;13.67;;;25.60;7.30;;;;;;4958434;28;20942;-70
2022/05/17 09:33:56;;;;;;;14.53;13.73;;;24.90;8.80;;;;;;4969866;28;20412;-71
2022/05/17 09:36:40;;;;;;;13.73;13.03;;;25.00;10.10;;;;;;4960177;28;20970;-71
2022/05/17 09:39:06;;;;;;;15.23;14.50;;;25.70;8.10;;;;;;4948642;28;20965;-71
2022/05/17 09:41:36;;;;;;;14.67;14.07;;;26.00;6.90;;;;;;4932971;29;20449;-71
2022/05/17 09:44:11;;;;;;;14.40;13.70;;;26.20;7.00;;;;;;4949802;29;20671;-68
2022/05/17 09:46:47;;;;;;;14.20;13.50;;;25.10;7.60;;;;;;4949886;29;20475;-71
2022/05/17 09:55:13;;;;;;;13.90;13.23;;;25.60;7.10;;;;;;4988352;28;20470;-69
2022/05/17 09:57:55;;;;;;;16.00;15.10;;;25.90;7.30;;;;;;4987919;28;20481;-69
2022/05/17 10:00:34;;;;;;;13.97;13.37;;;26.60;6.60;;;;;;4971063;28;20863;-70
2022/05/17 10:03:25;;;;;;;14.30;13.70;;;27.10;6.30;;;;;;4989154;28;20834;-70
2022/05/17 10:05:59;;;;;;;14.20;13.60;;;27.30;6.20;;;;;;4987994;28;20540;-69
2022/05/17 10:08:34;;;;;;;13.70;13.10;;;27.70;6.10;;;;;;4988068;28;20535;-70
2022/05/17 10:11:14;;;;;;;16.00;15.30;;;27.90;5.10;;;;;;4987965;28;20542;-69
2022/05/17 10:14:07;;;;;;;14.80;14.10;;;27.70;5.20;;;;;;4988236;28;20925;-71
2022/05/17 10:16:53;;;;;;;14.73;13.93;;;27.90;5.70;;;;;;4989139;28;20432;-70
2022/05/17 10:19:47;;;;;;;14.80;13.90;;;27.80;5.30;;;;;;4988295;28;20407;-68
2022/05/17 10:22:22;;;;;;;13.83;13.23;;;27.80;5.30;;;;;;4988269;28;20828;-70
2022/05/17 10:25:01;;;;;;;15.37;14.47;;;27.70;4.70;;;;;;4988287;28;20451;-70
2022/05/17 10:27:32;;;;;;;14.30;13.50;;;27.40;4.60;;;;;;4988035;28;21056;-69
2022/05/17 10:30:12;;;;;;;13.90;13.30;;;26.40;6.20;;;;;;4987923;28;20451;-69
2022/05/17 10:32:45;;;;;;;14.13;13.43;;;26.10;6.20;;;;;;4988817;28;20818;-69
2022/05/17 10:35:27;;;;;;;13.97;13.20;;;25.70;6.60;;;;;;4988879;28;20438;-70
2022/05/17 10:38:31;;;;;;;15.13;14.10;;;25.50;7.40;;;;;;4988684;28;20424;-70
2022/05/17 10:40:57;;;;;;;13.87;13.17;;;25.70;7.10;;;;;;4967250;28;20517;-71
2022/05/17 10:43:32;;;;;;;14.80;14.00;;;25.30;6.50;;;;;;4970739;28;20431;-70
2022/05/17 10:46:12;;;;;;;14.47;13.77;;;25.50;6.10;;;;;;4988459;28;20475;-73
2022/05/17 10:48:55;;;;;;;14.27;13.00;;;24.90;6.70;;;;;;4987844;28;20506;-72
2022/05/17 10:51:37;;;;;;;14.13;13.53;;;24.70;5.20;;;;;;4987830;28;20440;-70
2022/05/17 10:54:24;;;;;;;13.70;12.87;;;24.70;4.90;;;;;;4970161;28;20471;-70
2022/05/17 10:57:14;;;;;;;13.03;12.43;;;24.80;5.50;;;;;;4988570;28;20498;-70
2022/05/17 11:00:14;;;;;;;13.60;13.00;;;25.00;5.30;;;;;;4970339;28;20534;-72
2022/05/17 11:03:10;;;;;;;13.47;12.97;;;25.10;4.20;;;;;;4988426;28;21167;-73
2022/05/17 11:06:15;;;;;;;13.50;13.00;;;24.80;3.00;;;;;;4987513;28;20768;-70
2022/05/17 11:08:43;;;;;;;14.20;13.50;;;24.60;4.30;;;;;;4969619;28;20514;-72
2022/05/17 11:11:28;;;;;;;13.97;13.17;;;24.50;3.80;;;;;;4989425;28;20436;-71
2022/05/17 11:14:02;;;;;;;13.50;12.90;;;23.70;4.90;;;;;;4991269;28;20851;-71
2022/05/17 11:16:37;;;;;;;14.10;13.40;;;24.00;6.30;;;;;;4991241;28;20415;-72
2022/05/17 11:19:25;;;;;;;13.43;12.83;;;24.20;5.60;;;;;;4990711;28;20457;-72
2022/05/17 11:21:58;;;;;;;14.90;14.10;;;23.90;5.10;;;;;;4991708;28;20514;-71
2022/05/17 11:24:45;;;;;;;13.90;13.40;;;23.60;4.90;;;;;;4963462;28;20432;-72
2022/05/17 11:27:22;;;;;;;13.90;13.10;;;23.90;5.60;;;;;;4960942;28;20464;-71
2022/05/17 11:30:17;;;;;;;14.57;13.87;;;24.40;3.90;;;;;;4952988;29;20429;-71
2022/05/17 11:33:10;;;;;;;14.47;13.87;;;24.30;3.80;;;;;;4934017;29;20797;-72
2022/05/17 11:35:48;;;;;;;14.20;13.60;;;24.60;4.10;;;;;;4952550;29;20433;-70
2022/05/17 11:38:38;;;;;;;13.80;13.10;;;23.90;5.40;;;;;;4951997;29;20947;-70
2022/05/17 11:41:43;;;;;;;14.20;13.50;;;24.00;6.30;;;;;;4951247;29;20464;-71
2022/05/17 11:44:10;;;;;;;13.43;12.87;;;23.80;6.60;;;;;;4858603;29;20434;-70
2022/05/17 11:46:43;;;;;;;14.33;13.73;;;24.20;6.40;;;;;;4859470;29;20889;-69
2022/05/17 11:49:11;;;;;;;13.67;13.07;;;24.10;5.80;;;;;;4894375;29;20429;-69
2022/05/17 11:51:58;;;;;;;13.33;12.83;;;24.30;6.50;;;;;;4938060;29;20545;-70
2022/05/17 11:54:42;;;;;;;14.83;14.07;;;24.00;6.30;;;;;;4955825;29;20434;-68
2022/05/17 11:57:31;;;;;;;14.23;13.63;;;23.70;7.30;;;;;;4955736;29;20409;-68
2022/05/17 12:00:01;;;;;;;14.77;14.17;;;24.00;6.60;;;;;;4911205;29;20426;-69
2022/05/17 12:02:49;;;;;;;14.50;13.80;;;24.00;6.20;;;;;;4938874;29;20513;-69
2022/05/17 12:05:43;;;;;;;14.60;14.00;;;24.30;6.20;;;;;;4955754;29;20462;-69
2022/05/17 12:08:29;;;;;;;13.07;12.57;;;24.30;6.60;;;;;;4938687;29;20440;-69
2022/05/17 12:11:07;;;;;;;12.47;11.97;;;24.00;6.80;;;;;;4955833;29;20441;-69
2022/05/17 12:13:52;;;;;;;14.10;13.50;;;23.80;7.20;;;;;;4955747;29;20553;-69
2022/05/17 12:16:22;;;;;;;14.00;13.40;;;24.20;6.40;;;;;;4955639;29;20421;-68
2022/05/17 12:18:57;;;;;;;14.10;13.60;;;24.20;5.90;;;;;;4955387;29;20452;-69
2022/05/17 12:21:56;;;;;;;13.70;13.00;;;24.00;5.70;;;;;;4954921;28;20484;-68
2022/05/17 12:24:42;;;;;;;13.90;13.30;;;23.90;5.60;;;;;;4955519;29;20456;-69
2022/05/17 12:27:17;;;;;;;14.07;13.40;;;23.80;4.40;;;;;;4955415;29;20465;-68
2022/05/17 12:32:53;;;;;;;13.57;13.07;;;23.50;5.40;;;;;;4955672;29;20433;-67
2022/05/17 12:35:26;;;;;;;14.00;13.40;;;23.70;5.20;;;;;;4955229;29;20425;-67
2022/05/17 12:37:52;;;;;;;14.37;13.80;;;23.90;4.20;;;;;;4955007;29;20527;-68
2022/05/17 12:43:12;;;;;;;14.73;14.03;;;24.00;4.30;;;;;;4952059;29;20249;-70
2022/05/17 12:45:47;;;;;;;14.67;13.90;;;24.00;4.40;;;;;;4951625;29;20466;-70
2022/05/17 12:48:37;;;;;;;13.33;12.83;;;23.90;4.10;;;;;;4951077;29;20425;-69
2022/05/17 12:51:06;;;;;;;14.23;13.63;;;24.00;3.90;;;;;;4965591;28;20949;-68
2022/05/17 12:53:50;;;;;;;13.57;13.07;;;24.30;3.20;;;;;;4990460;28;20782;-67
2022/05/17 12:56:24;;;;;;;13.57;13.07;;;24.50;2.50;;;;;;4989745;28;20422;-66
2022/05/17 12:59:01;;;;;;;14.23;13.73;;;24.70;2.60;;;;;;4989888;28;20430;-65
2022/05/17 13:01:40;;;;;;;15.23;14.53;;;24.90;2.60;;;;;;4989750;28;21144;-66
2022/05/17 13:04:14;;;;;;;13.80;13.30;;;24.90;1.60;;;;;;4989601;28;20420;-66
2022/05/17 13:06:42;;;;;;;13.43;12.67;;;24.90;1.60;;;;;;4989785;28;20538;-66
2022/05/17 13:09:17;;;;;;;14.00;13.50;;;25.00;1.70;;;;;;4989212;28;20420;-68
2022/05/17 13:11:42;;;;;;;13.80;13.30;;;24.90;1.60;;;;;;4989515;28;20446;-67
2022/05/17 13:14:27;;;;;;;14.00;13.40;;;24.90;1.30;;;;;;4989152;28;20423;-68
2022/05/17 13:16:56;;;;;;;14.63;13.97;;;25.00;1.00;;;;;;4989400;28;20400;-67
2022/05/17 13:19:25;;;;;;;14.83;14.13;;;25.00;1.70;;;;;;4988819;28;20514;-67